createdAt,value
2023-02-17T00:00:47.312Z,100994.17
2023-02-17T00:03:28.764Z,100991.60
2023-02-17T00:06:08.469Z,100990.55
2023-02-17T00:08:45.783Z,100990.95
2023-02-17T00:11:24.182Z,100989.35
2023-02-17T00:13:56.297Z,100984.98
2023-02-17T00:16:35.214Z,100986.33
2023-02-17T00:19:26.601Z,100985.52
2023-02-17T00:22:07.742Z,100977.19
2023-02-17T00:24:45.684Z,100978.25
2023-02-17T00:27:23.694Z,100978.30
2023-02-17T00:30:01.863Z,100980.31
2023-02-17T00:32:40.561Z,100976.20
2023-02-17T00:35:18.655Z,100978.45
2023-02-17T00:37:48.816Z,100974.53
2023-02-17T00:40:22.403Z,100975.16
2023-02-17T00:42:55.380Z,100968.39
2023-02-17T00:45:30.217Z,100969.62
2023-02-17T00:48:26.221Z,100971.60
2023-02-17T00:50:56.492Z,100963.20
2023-02-17T00:53:30.386Z,100968.70
2023-02-17T00:56:09.209Z,100964.04
2023-02-17T00:58:46.788Z,100960.33
2023-02-17T01:01:24.707Z,100957.10
2023-02-17T01:03:55.951Z,100955.80
2023-02-17T01:06:37.897Z,100952.22
2023-02-17T01:09:15.937Z,100947.80
2023-02-17T01:11:53.480Z,100948.19
2023-02-17T01:14:31.216Z,100941.05
2023-02-17T01:17:02.856Z,100941.59
2023-02-17T01:19:34.375Z,100937.77
2023-02-17T01:22:11.645Z,100939.61
2023-02-17T01:24:49.432Z,100933.54
2023-02-17T01:27:27.495Z,100928.64
2023-02-17T01:30:05.467Z,100926.21
2023-02-17T01:32:43.263Z,100922.27
2023-02-17T01:35:20.793Z,100919.92
2023-02-17T01:37:58.013Z,100916.32
2023-02-17T01:40:28.957Z,100913.05
2023-02-17T01:43:08.045Z,100909.77
2023-02-17T01:45:53.356Z,100906.13
2023-02-17T01:48:46.145Z,100907.14
2023-02-17T01:51:32.515Z,100903.42
2023-02-17T01:54:19.954Z,100904.72
2023-02-17T01:56:53.158Z,100910.21
2023-02-17T01:59:33.048Z,100896.75
2023-02-17T02:02:06.112Z,100908.98
2023-02-17T02:04:47.371Z,100903.69
2023-02-17T02:07:30.259Z,100904.21
2023-02-17T02:10:09.464Z,100897.57
2023-02-17T02:12:46.861Z,100897.20
2023-02-17T02:15:30.506Z,100895.85
2023-02-17T02:18:26.860Z,100891.77
2023-02-17T02:21:53.514Z,100889.01
2023-02-17T02:24:57.382Z,100890.67
2023-02-17T02:27:51.094Z,100884.61
2023-02-17T02:31:10.642Z,100882.39
2023-02-17T02:34:06.535Z,100881.14
2023-02-17T02:37:23.847Z,100876.18
2023-02-17T02:40:08.428Z,100875.73
2023-02-17T02:42:47.316Z,100877.12
2023-02-17T02:45:25.947Z,100870.70
2023-02-17T02:48:03.556Z,100877.74
2023-02-17T02:51:04.964Z,100877.58
2023-02-17T02:54:20.826Z,100873.95
2023-02-17T02:57:26.656Z,100875.83
2023-02-17T03:00:15.038Z,100870.27
2023-02-17T03:03:00.394Z,100868.13
2023-02-17T03:06:11.848Z,100864.68
2023-02-17T03:09:09.131Z,100864.55
2023-02-17T03:11:48.689Z,100867.70
2023-02-17T03:14:22.207Z,100873.39
2023-02-17T03:16:55.986Z,100878.49
2023-02-17T03:19:34.140Z,100873.48
2023-02-17T03:22:33.176Z,100872.71
2023-02-17T03:25:12.694Z,100868.73
2023-02-17T03:27:50.869Z,100865.63
2023-02-17T03:30:29.298Z,100866.86
2023-02-17T03:33:00.897Z,100877.89
2023-02-17T03:35:35.148Z,100872.54
2023-02-17T03:38:13.706Z,100864.30
2023-02-17T03:40:50.944Z,100874.27
2023-02-17T03:43:28.761Z,100868.63
2023-02-17T03:46:06.369Z,100867.83
2023-02-17T03:48:43.690Z,100865.52
2023-02-17T03:51:25.718Z,100868.38
2023-02-17T03:54:02.957Z,100874.98
2023-02-17T03:56:40.400Z,100878.40
2023-02-17T03:59:18.011Z,100877.91
2023-02-17T04:01:55.527Z,100872.81
2023-02-17T04:04:32.668Z,100871.17
2023-02-17T04:07:12.829Z,100860.59
2023-02-17T04:09:51.282Z,100853.25
2023-02-17T04:12:28.817Z,100848.31
2023-02-17T04:14:59.402Z,100846.83
2023-02-17T04:17:38.449Z,100850.48
2023-02-17T04:20:15.835Z,100851.20
2023-02-17T04:22:53.294Z,100850.20
2023-02-17T04:25:30.962Z,100849.44
2023-02-17T04:28:13.057Z,100857.46
2023-02-17T04:30:53.928Z,100853.89
2023-02-17T04:33:31.637Z,100857.64
2023-02-17T04:36:10.201Z,100851.35
2023-02-17T04:38:47.448Z,100850.41
2023-02-17T04:41:26.457Z,100850.52
2023-02-17T04:44:05.229Z,100840.31
2023-02-17T04:46:43.106Z,100825.58
2023-02-17T04:49:20.911Z,100824.48
2023-02-17T04:51:57.867Z,100824.52
2023-02-17T04:54:36.030Z,100822.37
2023-02-17T04:57:14.688Z,100824.83
2023-02-17T04:59:51.546Z,100824.53
2023-02-17T05:02:21.901Z,100827.23
2023-02-17T05:04:58.002Z,100820.27
2023-02-17T05:07:35.825Z,100818.07
2023-02-17T05:10:14.270Z,100818.20
2023-02-17T05:12:53.165Z,100808.88
2023-02-17T05:15:31.266Z,100804.39
2023-02-17T05:18:10.591Z,100801.90
2023-02-17T05:20:48.058Z,100806.16
2023-02-17T05:23:25.947Z,100805.28
2023-02-17T05:26:03.250Z,100806.78
2023-02-17T05:28:41.135Z,100797.58
2023-02-17T05:31:20.868Z,100796.70
2023-02-17T05:33:58.422Z,100804.84
2023-02-17T05:36:36.624Z,100795.70
2023-02-17T05:39:14.372Z,100796.16
2023-02-17T05:41:55.326Z,100793.17
2023-02-17T05:44:40.929Z,100802.41
2023-02-17T05:47:18.432Z,100792.70
2023-02-17T05:49:56.392Z,100792.48
2023-02-17T05:52:26.844Z,100788.77
2023-02-17T05:55:00.261Z,100786.77
2023-02-17T05:57:38.646Z,100782.06
2023-02-17T06:00:17.497Z,100780.92
2023-02-17T06:02:56.776Z,100786.52
2023-02-17T06:05:34.642Z,100788.45
2023-02-17T06:08:13.425Z,100782.95
2023-02-17T06:10:51.092Z,100781.42
2023-02-17T06:13:29.129Z,100779.23
2023-02-17T06:16:07.611Z,100780.52
2023-02-17T06:18:45.919Z,100780.56
2023-02-17T06:21:24.056Z,100784.94
2023-02-17T06:24:01.495Z,100783.26
2023-02-17T06:26:39.930Z,100781.79
2023-02-17T06:29:18.095Z,100781.20
2023-02-17T06:31:56.535Z,100776.29
2023-02-17T06:34:35.092Z,100780.94
2023-02-17T06:37:05.632Z,100779.02
2023-02-17T06:39:36.587Z,100781.27
2023-02-17T06:42:15.065Z,100782.73
2023-02-17T06:44:53.455Z,100782.79
2023-02-17T06:47:31.898Z,100774.48
2023-02-17T06:50:11.865Z,100774.64
2023-02-17T06:52:49.773Z,100769.16
2023-02-17T06:55:28.422Z,100769.45
2023-02-17T06:58:08.919Z,100771.99
2023-02-17T07:00:47.135Z,100768.27
2023-02-17T07:03:25.296Z,100773.25
2023-02-17T07:06:07.047Z,100771.48
2023-02-17T07:08:45.500Z,100768.73
2023-02-17T07:11:23.780Z,100762.06
2023-02-17T07:14:03.299Z,100754.35
2023-02-17T07:16:41.891Z,100755.56
2023-02-17T07:19:20.694Z,100762.54
2023-02-17T07:21:58.480Z,100763.30
2023-02-17T07:24:37.430Z,100759.39
2023-02-17T07:27:16.216Z,100747.46
2023-02-17T07:29:47.462Z,100740.75
2023-02-17T07:32:18.807Z,100746.21
2023-02-17T07:34:56.968Z,100745.80
2023-02-17T07:37:35.049Z,100745.56
2023-02-17T07:40:14.517Z,100744.36
2023-02-17T07:42:52.373Z,100745.23
2023-02-17T07:45:22.592Z,100751.95
2023-02-17T07:48:01.179Z,100749.52
2023-02-17T07:50:39.858Z,100748.06
2023-02-17T07:53:18.390Z,100743.98
2023-02-17T07:55:56.277Z,100745.69
2023-02-17T07:58:36.519Z,100743.51
2023-02-17T08:01:08.873Z,100741.81
2023-02-17T08:03:44.751Z,100743.86
2023-02-17T08:06:24.209Z,100740.92
2023-02-17T08:09:19.952Z,100740.08
2023-02-17T08:12:18.692Z,100743.23
2023-02-17T08:15:02.181Z,100735.94
2023-02-17T08:17:41.327Z,100730.52
2023-02-17T08:20:19.762Z,100727.22
2023-02-17T08:22:57.348Z,100728.55
2023-02-17T08:25:38.874Z,100731.72
2023-02-17T08:28:15.605Z,100731.34
2023-02-17T08:30:54.427Z,100728.84
2023-02-17T08:33:32.357Z,100721.13
2023-02-17T08:36:12.440Z,100722.34
2023-02-17T08:38:51.722Z,100718.88
2023-02-17T08:41:39.776Z,100710.27
2023-02-17T08:44:19.530Z,100708.00
2023-02-17T08:46:57.351Z,100708.92
2023-02-17T08:49:34.041Z,100708.34
2023-02-17T08:52:13.518Z,100707.50
2023-02-17T08:54:53.158Z,100701.30
2023-02-17T08:57:32.835Z,100704.16
2023-02-17T09:00:06.707Z,100696.91
2023-02-17T09:02:45.522Z,100700.36
2023-02-17T09:05:21.067Z,100695.14
2023-02-17T09:07:59.648Z,100697.17
2023-02-17T09:10:37.893Z,100693.96
2023-02-17T09:13:08.365Z,100688.29
2023-02-17T09:15:46.600Z,100697.45
2023-02-17T09:18:22.508Z,100703.48
2023-02-17T09:21:01.472Z,100693.96
2023-02-17T09:23:40.181Z,100695.80
2023-02-17T09:26:20.152Z,100691.92
2023-02-17T09:28:58.365Z,100688.03
2023-02-17T09:31:34.712Z,100687.44
2023-02-17T09:34:14.113Z,100684.62
2023-02-17T09:36:52.388Z,100682.04
2023-02-17T09:39:24.310Z,100676.83
2023-02-17T09:42:02.336Z,100674.88
2023-02-17T09:44:57.347Z,100671.46
2023-02-17T09:47:46.748Z,100666.60
2023-02-17T09:50:46.652Z,100660.09
2023-02-17T09:53:49.460Z,100656.06
2023-02-17T09:56:33.740Z,100655.08
2023-02-17T09:59:46.936Z,100648.62
2023-02-17T10:02:25.852Z,100647.77
2023-02-17T10:05:09.498Z,100647.68
2023-02-17T10:07:59.759Z,100642.38
2023-02-17T10:11:24.336Z,100644.12
2023-02-17T10:14:13.554Z,100635.56
2023-02-17T10:17:11.128Z,100636.76
2023-02-17T10:20:25.068Z,100635.14
2023-02-17T10:23:35.921Z,100634.77
2023-02-17T10:26:31.033Z,100632.63
2023-02-17T10:29:22.470Z,100630.37
2023-02-17T10:32:19.503Z,100628.60
2023-02-17T10:35:15.909Z,100626.89
2023-02-17T10:38:02.948Z,100623.11
2023-02-17T10:40:41.067Z,100615.67
2023-02-17T10:43:31.251Z,100607.59
2023-02-17T10:46:11.414Z,100602.92
2023-02-17T10:48:59.951Z,100590.42
2023-02-17T10:51:40.358Z,100585.89
2023-02-17T10:54:36.847Z,100579.93
2023-02-17T10:57:14.654Z,100574.50
2023-02-17T10:59:50.091Z,100571.18
2023-02-17T11:02:46.741Z,100566.94
2023-02-17T11:05:37.538Z,100562.27
2023-02-17T11:08:48.502Z,100558.84
2023-02-17T11:11:30.737Z,100552.31
2023-02-17T11:14:30.889Z,100540.42
2023-02-17T11:17:23.388Z,100533.61
2023-02-17T11:20:08.629Z,100528.06
2023-02-17T11:22:48.338Z,100523.39
2023-02-17T11:25:36.257Z,100514.74
2023-02-17T11:28:26.668Z,100510.33
2023-02-17T11:31:07.760Z,100505.90
2023-02-17T11:33:47.121Z,100498.19
2023-02-17T11:36:33.262Z,100489.76
2023-02-17T11:39:26.873Z,100482.40
2023-02-17T11:42:03.846Z,100472.36
2023-02-17T11:44:42.785Z,100462.26
2023-02-17T11:47:34.147Z,100456.86
2023-02-17T11:50:45.842Z,100458.30
2023-02-17T11:53:49.772Z,100453.20
2023-02-17T11:56:42.147Z,100448.52
2023-02-17T11:59:49.270Z,100445.84
2023-02-17T12:02:46.099Z,100438.38
2023-02-17T12:05:55.420Z,100432.34
2023-02-17T12:08:51.633Z,100421.67
2023-02-17T12:11:53.436Z,100419.81
2023-02-17T12:14:59.621Z,100413.58
2023-02-17T12:17:49.993Z,100400.06
2023-02-17T12:21:30.377Z,100392.77
2023-02-17T12:24:34.690Z,100380.59
2023-02-17T12:27:42.788Z,100376.41
2023-02-17T12:30:51.231Z,100363.97
2023-02-17T12:33:48.469Z,100346.01
2023-02-17T12:36:30.920Z,100342.23
2023-02-17T12:39:31.012Z,100335.45
2023-02-17T12:42:18.814Z,100318.40
2023-02-17T12:45:23.553Z,100321.17
2023-02-17T12:48:31.582Z,100321.54
2023-02-17T12:51:37.608Z,100321.80
2023-02-17T12:54:51.910Z,100318.20
2023-02-17T12:57:54.035Z,100315.77
2023-02-17T13:01:10.182Z,100314.91
2023-02-17T13:03:49.042Z,100310.92
2023-02-17T13:06:45.532Z,100304.52
2023-02-17T13:09:48.320Z,100296.56
2023-02-17T13:12:27.782Z,100279.79
2023-02-17T13:15:09.029Z,100278.60
2023-02-17T13:18:03.579Z,100281.51
2023-02-17T13:21:02.135Z,100275.61
2023-02-17T13:23:48.563Z,100274.81
2023-02-17T13:26:25.899Z,100266.83
2023-02-17T13:29:46.172Z,100260.33
2023-02-17T13:32:34.182Z,100252.67
2023-02-17T13:35:29.162Z,100247.15
2023-02-17T13:38:08.885Z,100245.13
2023-02-17T13:40:45.453Z,100245.73
2023-02-17T13:43:20.631Z,100240.38
2023-02-17T13:46:06.698Z,100237.41
2023-02-17T13:48:38.972Z,100233.51
2023-02-17T13:51:32.594Z,100232.23
2023-02-17T13:54:16.733Z,100230.27
2023-02-17T13:56:58.259Z,100228.15
2023-02-17T13:59:38.562Z,100231.10
2023-02-17T14:02:35.906Z,100220.76
2023-02-17T14:05:39.141Z,100212.45
2023-02-17T14:08:30.666Z,100209.80
2023-02-17T14:11:22.789Z,100209.84
2023-02-17T14:13:58.293Z,100210.79
2023-02-17T14:16:37.765Z,100200.31
2023-02-17T14:19:18.978Z,100190.21
2023-02-17T14:21:55.683Z,100184.98
2023-02-17T14:24:40.066Z,100178.09
2023-02-17T14:27:15.210Z,100175.15
2023-02-17T14:29:54.269Z,100164.52
2023-02-17T14:32:41.314Z,100158.23
2023-02-17T14:35:22.638Z,100150.67
2023-02-17T14:37:55.273Z,100136.24
2023-02-17T14:40:32.208Z,100131.83
2023-02-17T14:43:09.920Z,100130.89
2023-02-17T14:45:47.777Z,100125.05
2023-02-17T14:48:28.010Z,100113.09
2023-02-17T14:51:08.380Z,100103.48
2023-02-17T14:53:46.505Z,100095.75
2023-02-17T14:56:38.173Z,100090.64
2023-02-17T14:59:15.512Z,100083.07
2023-02-17T15:01:53.710Z,100077.42
2023-02-17T15:04:31.903Z,100073.73
2023-02-17T15:07:12.289Z,100069.10
2023-02-17T15:09:51.424Z,100067.45
2023-02-17T15:12:29.370Z,100060.81
2023-02-17T15:15:06.945Z,100053.98
2023-02-17T15:17:44.920Z,100053.32
2023-02-17T15:20:22.218Z,100049.63
2023-02-17T15:23:00.631Z,100047.71
2023-02-17T15:25:38.432Z,100038.52
2023-02-17T15:28:19.894Z,100035.93
2023-02-17T15:30:56.899Z,100031.99
2023-02-17T15:33:34.222Z,100029.13
2023-02-17T15:36:17.900Z,100024.65
2023-02-17T15:39:00.429Z,100015.27
2023-02-17T15:41:40.439Z,100011.14
2023-02-17T15:44:49.192Z,100007.61
2023-02-17T15:47:21.563Z,99992.96
2023-02-17T15:49:57.866Z,99985.02
2023-02-17T15:52:35.245Z,99978.98
2023-02-17T15:55:13.167Z,99973.45
2023-02-17T15:57:54.851Z,99969.58
2023-02-17T16:00:36.878Z,99961.27
2023-02-17T16:03:16.275Z,99963.12
2023-02-17T16:05:53.898Z,99955.45
2023-02-17T16:08:30.521Z,99939.64
2023-02-17T16:11:07.300Z,99949.61
2023-02-17T16:13:45.464Z,99946.38
2023-02-17T16:16:33.178Z,99940.79
2023-02-17T16:19:09.098Z,99930.73
2023-02-17T16:21:45.897Z,99925.59
2023-02-17T16:24:22.281Z,99926.02
2023-02-17T16:26:58.657Z,99919.05
2023-02-17T16:29:34.922Z,99911.92
2023-02-17T16:32:14.492Z,99902.64
2023-02-17T16:34:52.510Z,99899.81
2023-02-17T16:37:29.666Z,99895.63
2023-02-17T16:40:01.129Z,99894.37
2023-02-17T16:42:38.322Z,99892.55
2023-02-17T16:45:35.565Z,99890.64
2023-02-17T16:48:11.311Z,99887.04
2023-02-17T16:50:41.641Z,99883.02
2023-02-17T16:53:19.149Z,99875.98
2023-02-17T16:55:58.113Z,99871.52
2023-02-17T16:58:31.003Z,99868.69
2023-02-17T17:01:13.128Z,99860.27
2023-02-17T17:03:49.621Z,99849.48
2023-02-17T17:06:32.146Z,99844.73
2023-02-17T17:09:09.772Z,99837.92
2023-02-17T17:11:46.684Z,99838.58
2023-02-17T17:14:23.053Z,99828.79
2023-02-17T17:17:05.249Z,99821.25
2023-02-17T17:19:41.825Z,99813.54
2023-02-17T17:22:18.937Z,99811.49
2023-02-17T17:24:55.871Z,99801.66
2023-02-17T17:27:26.985Z,99795.13
2023-02-17T17:30:02.448Z,99795.16
2023-02-17T17:32:40.319Z,99788.97
2023-02-17T17:35:16.970Z,99776.10
2023-02-17T17:37:54.322Z,99772.86
2023-02-17T17:40:49.471Z,99762.06
2023-02-17T17:43:23.978Z,99749.48
2023-02-17T17:46:00.848Z,99745.70
2023-02-17T17:48:37.643Z,99736.05
2023-02-17T17:51:16.989Z,99730.82
2023-02-17T17:53:54.959Z,99729.13
2023-02-17T17:56:39.687Z,99729.96
2023-02-17T17:59:17.929Z,99725.88
2023-02-17T18:01:55.448Z,99718.10
2023-02-17T18:04:33.704Z,99710.09
2023-02-17T18:07:12.625Z,99712.89
2023-02-17T18:09:49.107Z,99712.59
2023-02-17T18:12:26.026Z,99706.66
2023-02-17T18:15:04.768Z,99693.86
2023-02-17T18:17:44.079Z,99690.39
2023-02-17T18:20:21.936Z,99681.56
2023-02-17T18:22:59.566Z,99685.41
2023-02-17T18:25:36.768Z,99687.73
2023-02-17T18:28:10.701Z,99678.99
2023-02-17T18:30:43.814Z,99670.98
2023-02-17T18:33:21.117Z,99667.04
2023-02-17T18:35:58.914Z,99660.95
2023-02-17T18:38:36.849Z,99652.73
2023-02-17T18:41:25.674Z,99656.95
2023-02-17T18:44:02.797Z,99650.23
2023-02-17T18:46:40.779Z,99645.40
2023-02-17T18:49:18.900Z,99629.44
2023-02-17T18:51:56.056Z,99641.30
2023-02-17T18:54:27.318Z,99645.77
2023-02-17T18:57:06.193Z,99644.85
2023-02-17T18:59:46.414Z,99636.15
2023-02-17T19:02:26.784Z,99636.19
2023-02-17T19:05:05.052Z,99634.90
2023-02-17T19:07:42.470Z,99633.14
2023-02-17T19:10:19.430Z,99631.27
2023-02-17T19:12:49.558Z,99626.84
2023-02-17T19:15:25.411Z,99608.77
2023-02-17T19:18:03.192Z,99618.20
2023-02-17T19:20:40.853Z,99610.73
2023-02-17T19:23:20.360Z,99613.99
2023-02-17T19:25:58.734Z,99599.19
2023-02-17T19:28:37.240Z,99610.42
2023-02-17T19:31:19.115Z,99611.52
2023-02-17T19:33:57.543Z,99601.55
2023-02-17T19:36:35.082Z,99599.27
2023-02-17T19:39:13.079Z,99600.55
2023-02-17T19:41:50.564Z,99596.95
2023-02-17T19:44:30.627Z,99586.61
2023-02-17T19:47:09.277Z,99587.73
2023-02-17T19:49:43.817Z,99586.03
2023-02-17T19:52:21.465Z,99583.98
2023-02-17T19:54:51.596Z,99588.51
2023-02-17T19:57:25.786Z,99585.59
2023-02-17T20:00:03.161Z,99586.48
2023-02-17T20:02:41.119Z,99587.08
2023-02-17T20:05:18.829Z,99590.63
2023-02-17T20:07:57.652Z,99581.39
2023-02-17T20:10:34.821Z,99586.17
2023-02-17T20:13:13.876Z,99584.58
2023-02-17T20:15:59.260Z,99577.70
2023-02-17T20:18:39.300Z,99576.35
2023-02-17T20:21:23.147Z,99561.73
2023-02-17T20:24:00.767Z,99570.83
2023-02-17T20:26:42.579Z,99565.22
2023-02-17T20:29:20.386Z,99556.30
2023-02-17T20:31:58.297Z,99561.29
2023-02-17T20:34:39.147Z,99557.57
2023-02-17T20:37:17.313Z,99552.30
2023-02-17T20:39:55.084Z,99549.20
2023-02-17T20:42:33.163Z,99552.52
2023-02-17T20:45:12.039Z,99544.59
2023-02-17T20:47:48.148Z,99550.22
2023-02-17T20:50:26.373Z,99550.09
2023-02-17T20:53:04.904Z,99543.19
2023-02-17T20:55:36.679Z,99551.90
2023-02-17T20:58:12.655Z,99547.43
2023-02-17T21:00:47.592Z,99539.50
2023-02-17T21:03:26.028Z,99534.98
2023-02-17T21:06:07.198Z,99542.73
2023-02-17T21:08:45.723Z,99534.90
2023-02-17T21:11:23.485Z,99530.89
2023-02-17T21:13:55.107Z,99522.89
2023-02-17T21:16:33.618Z,99510.48
2023-02-17T21:19:11.801Z,99514.73
2023-02-17T21:21:43.077Z,99514.70
2023-02-17T21:24:21.740Z,99517.00
2023-02-17T21:27:00.796Z,99509.98
2023-02-17T21:29:32.451Z,99510.45
2023-02-17T21:32:08.863Z,99500.89
2023-02-17T21:34:45.987Z,99498.02
2023-02-17T21:37:23.379Z,99493.98
2023-02-17T21:40:00.368Z,99504.40
2023-02-17T21:42:56.456Z,99497.23
2023-02-17T21:45:29.740Z,99497.45
2023-02-17T21:48:07.816Z,99498.04
2023-02-17T21:50:45.154Z,99506.23
2023-02-17T21:53:21.560Z,99510.54
2023-02-17T21:56:00.038Z,99498.23
2023-02-17T21:58:34.111Z,99500.50
2023-02-17T22:01:13.216Z,99509.91
2023-02-17T22:03:50.941Z,99505.64
2023-02-17T22:06:31.265Z,99505.80
2023-02-17T22:09:10.320Z,99509.36
2023-02-17T22:11:49.016Z,99513.93
2023-02-17T22:14:26.609Z,99539.55
2023-02-17T22:17:03.459Z,99520.27
2023-02-17T22:19:33.796Z,99522.95
2023-02-17T22:22:10.512Z,99520.73
2023-02-17T22:24:47.320Z,99526.83
2023-02-17T22:27:25.218Z,99527.47
2023-02-17T22:30:02.121Z,99524.59
2023-02-17T22:32:40.611Z,99524.42
2023-02-17T22:35:20.457Z,99524.69
2023-02-17T22:37:58.868Z,99512.14
2023-02-17T22:40:36.633Z,99513.95
2023-02-17T22:43:13.743Z,99507.67
2023-02-17T22:45:58.310Z,99509.65
2023-02-17T22:48:36.067Z,99510.84
2023-02-17T22:51:15.669Z,99512.94
2023-02-17T22:53:53.859Z,99519.20
2023-02-17T22:56:25.348Z,99529.02
2023-02-17T22:58:58.954Z,99533.52
2023-02-17T23:01:34.644Z,99531.08
2023-02-17T23:04:12.999Z,99530.41
2023-02-17T23:06:50.783Z,99533.01
2023-02-17T23:09:28.308Z,99536.52
2023-02-17T23:12:06.244Z,99538.86
2023-02-17T23:14:43.538Z,99535.14
2023-02-17T23:17:20.893Z,99538.50
2023-02-17T23:19:58.185Z,99542.18
2023-02-17T23:22:35.305Z,99545.39
2023-02-17T23:25:13.881Z,99547.13
2023-02-17T23:27:51.141Z,99553.37
2023-02-17T23:33:28.773Z,99557.98
2023-02-17T23:36:08.988Z,99552.91
2023-02-17T23:38:46.764Z,99554.64
2023-02-17T23:41:24.856Z,99559.10
2023-02-17T23:44:01.686Z,99560.21
2023-02-17T23:46:39.976Z,99564.42
2023-02-17T23:49:22.640Z,99556.52
2023-02-17T23:51:59.592Z,99567.88
2023-02-17T23:54:36.539Z,99566.02
2023-02-17T23:57:13.615Z,99574.55
2023-02-17T23:59:50.972Z,99573.77
